createdAt,value
2018-02-18T00:01:53.448Z,89.21
2018-02-18T00:02:53.432Z,88.64
2018-02-18T00:03:54.175Z,88.93
2018-02-18T00:04:53.616Z,88.74
2018-02-18T00:05:53.557Z,89.31
2018-02-18T00:06:54.510Z,89.78
2018-02-18T00:07:55.888Z,89.69
2018-02-18T00:08:53.373Z,89.40
2018-02-18T00:09:53.363Z,89.40
2018-02-18T00:10:53.351Z,89.31
2018-02-18T00:11:53.343Z,89.59
2018-02-18T00:12:55.790Z,89.31
2018-02-18T00:13:53.824Z,89.40
2018-02-18T00:14:53.360Z,89.59
2018-02-18T00:15:55.165Z,90.06
2018-02-18T00:16:53.290Z,90.06
2018-02-18T00:17:54.884Z,89.78
2018-02-18T00:18:56.972Z,90.25
2018-02-18T00:19:54.354Z,89.59
2018-02-18T00:20:57.144Z,89.31
2018-02-18T00:22:01.147Z,89.40
2018-02-18T00:22:58.230Z,89.69
2018-02-18T00:23:53.630Z,89.59
2018-02-18T00:24:53.355Z,89.40
2018-02-18T00:25:53.195Z,89.40
2018-02-18T00:26:53.183Z,89.40
2018-02-18T00:27:53.177Z,89.69
2018-02-18T00:28:53.160Z,89.12
2018-02-18T00:29:53.151Z,89.31
2018-02-18T00:30:53.448Z,89.21
2018-02-18T00:31:53.532Z,89.40
2018-02-18T00:32:53.116Z,89.59
2018-02-18T00:33:53.107Z,89.31
2018-02-18T00:34:53.100Z,89.02
2018-02-18T00:35:53.088Z,89.31
2018-02-18T00:36:53.321Z,89.59
2018-02-18T00:37:53.066Z,89.50
2018-02-18T00:38:53.055Z,89.59
2018-02-18T00:39:53.042Z,89.59
2018-02-18T00:40:53.033Z,89.50
2018-02-18T00:41:53.025Z,89.59
2018-02-18T00:42:53.265Z,89.59
2018-02-18T00:43:53.005Z,89.59
2018-02-18T00:44:52.989Z,89.31
2018-02-18T00:45:52.983Z,89.69
2018-02-18T00:46:52.969Z,89.69
2018-02-18T00:47:52.962Z,89.59
2018-02-18T00:48:53.199Z,89.40
2018-02-18T00:49:52.936Z,89.50
2018-02-18T00:50:52.924Z,89.59
2018-02-18T00:51:52.913Z,89.78
2018-02-18T00:52:52.948Z,89.69
2018-02-18T00:53:52.895Z,89.59
2018-02-18T00:54:53.136Z,89.50
2018-02-18T00:55:52.868Z,89.59
2018-02-18T00:56:52.907Z,89.50
2018-02-18T00:57:52.852Z,89.59
2018-02-18T00:58:52.841Z,89.31
2018-02-18T00:59:52.827Z,89.69
2018-02-18T01:00:53.066Z,89.59
2018-02-18T01:01:52.808Z,88.64
2018-02-18T01:02:52.791Z,89.78
2018-02-18T01:03:52.790Z,89.69
2018-02-18T01:04:52.774Z,89.40
2018-02-18T01:05:52.761Z,89.83
2018-02-18T01:06:53.101Z,90.34
2018-02-18T01:07:52.740Z,90.44
2018-02-18T01:08:52.730Z,90.77
2018-02-18T01:09:52.718Z,91.01
2018-02-18T01:10:52.713Z,90.63
2018-02-18T01:11:52.696Z,90.63
2018-02-18T01:12:52.934Z,90.16
2018-02-18T01:13:52.677Z,90.16
2018-02-18T01:14:52.665Z,89.87
2018-02-18T01:15:52.654Z,89.97
2018-02-18T01:16:52.641Z,89.59
2018-02-18T01:17:52.627Z,89.21
2018-02-18T01:18:52.867Z,89.31
2018-02-18T01:19:52.610Z,89.21
2018-02-18T01:20:52.610Z,89.31
2018-02-18T01:21:52.584Z,89.31
2018-02-18T01:22:52.585Z,89.12
2018-02-18T01:23:52.575Z,89.59
2018-02-18T01:24:52.905Z,89.50
2018-02-18T01:25:52.545Z,89.78
2018-02-18T01:26:52.537Z,89.21
2018-02-18T01:27:52.522Z,89.21
2018-02-18T01:28:52.562Z,89.31
2018-02-18T01:29:52.503Z,89.31
2018-02-18T01:30:52.738Z,89.50
2018-02-18T01:31:52.480Z,90.06
2018-02-18T01:32:52.468Z,89.40
2018-02-18T01:33:52.458Z,89.69
2018-02-18T01:34:52.443Z,89.31
2018-02-18T01:35:52.437Z,89.21
2018-02-18T01:36:52.679Z,89.12
2018-02-18T01:37:52.413Z,89.31
2018-02-18T01:38:52.399Z,89.69
2018-02-18T01:39:52.393Z,89.40
2018-02-18T01:40:52.376Z,89.50
2018-02-18T01:41:52.369Z,89.59
2018-02-18T01:42:52.608Z,89.59
2018-02-18T01:43:52.347Z,89.73
2018-02-18T01:44:52.337Z,90.25
2018-02-18T01:45:52.328Z,90.44
2018-02-18T01:46:52.320Z,90.11
2018-02-18T01:47:52.304Z,89.64
2018-02-18T01:48:52.290Z,89.92
2018-02-18T01:49:52.283Z,90.16
2018-02-18T01:50:52.266Z,89.92
2018-02-18T01:51:52.260Z,90.11
2018-02-18T01:52:52.249Z,89.64
2018-02-18T01:53:52.232Z,89.92
2018-02-18T01:54:52.472Z,90.20
2018-02-18T01:55:52.214Z,90.39
2018-02-18T01:56:52.205Z,89.92
2018-02-18T01:57:52.196Z,89.73
2018-02-18T01:58:52.184Z,90.11
2018-02-18T01:59:52.173Z,89.97
2018-02-18T02:00:52.157Z,90.11
2018-02-18T02:01:52.156Z,90.11
2018-02-18T02:02:52.142Z,89.54
2018-02-18T02:03:52.131Z,89.92
2018-02-18T02:04:52.117Z,90.11
2018-02-18T02:05:52.104Z,90.25
2018-02-18T02:06:52.343Z,90.39
2018-02-18T02:07:52.081Z,90.39
2018-02-18T02:08:52.070Z,90.25
2018-02-18T02:09:52.062Z,89.54
2018-02-18T02:10:52.056Z,89.45
2018-02-18T02:11:52.038Z,89.26
2018-02-18T02:12:52.034Z,89.26
2018-02-18T02:13:52.018Z,89.64
2018-02-18T02:14:52.005Z,89.83
2018-02-18T02:15:51.998Z,90.39
2018-02-18T02:16:51.989Z,90.68
2018-02-18T02:17:51.969Z,90.86
2018-02-18T02:18:52.066Z,90.49
2018-02-18T02:19:51.945Z,90.77
2018-02-18T02:20:51.938Z,90.11
2018-02-18T02:21:51.927Z,90.20
2018-02-18T02:22:51.920Z,90.58
2018-02-18T02:23:51.906Z,90.39
2018-02-18T02:24:51.890Z,90.20
2018-02-18T02:25:51.887Z,90.30
2018-02-18T02:26:51.870Z,90.39
2018-02-18T02:27:51.864Z,90.30
2018-02-18T02:28:51.849Z,90.20
2018-02-18T02:29:51.837Z,90.11
2018-02-18T02:30:51.824Z,90.11
2018-02-18T02:31:51.814Z,90.01
2018-02-18T02:32:51.809Z,90.01
2018-02-18T02:33:51.788Z,90.01
2018-02-18T02:34:51.781Z,89.92
2018-02-18T02:35:51.770Z,90.01
2018-02-18T02:36:51.860Z,90.39
2018-02-18T02:37:51.748Z,90.58
2018-02-18T02:38:51.736Z,90.01
2018-02-18T02:39:51.722Z,89.83
2018-02-18T02:40:51.712Z,89.64
2018-02-18T02:41:51.704Z,90.11
2018-02-18T02:42:51.692Z,89.92
2018-02-18T02:43:51.680Z,90.01
2018-02-18T02:44:51.668Z,89.73
2018-02-18T02:45:51.660Z,89.83
2018-02-18T02:46:51.642Z,90.11
2018-02-18T02:47:51.635Z,90.01
2018-02-18T02:48:51.625Z,89.92
2018-02-18T02:49:51.611Z,90.20
2018-02-18T02:50:51.599Z,90.11
2018-02-18T02:51:51.602Z,90.20
2018-02-18T02:52:51.570Z,89.54
2018-02-18T02:53:51.567Z,90.39
2018-02-18T02:54:51.551Z,89.83
2018-02-18T02:55:51.541Z,90.01
2018-02-18T02:56:51.525Z,90.11
2018-02-18T02:57:51.520Z,90.58
2018-02-18T02:58:51.511Z,90.39
2018-02-18T02:59:51.496Z,89.73
2018-02-18T03:00:51.484Z,90.11
2018-02-18T03:01:51.472Z,90.39
2018-02-18T03:02:51.459Z,90.39
2018-02-18T03:03:51.449Z,90.11
2018-02-18T03:04:51.442Z,89.83
2018-02-18T03:05:51.421Z,89.54
2018-02-18T03:06:51.409Z,89.36
2018-02-18T03:07:51.401Z,89.07
2018-02-18T03:08:51.389Z,89.54
2018-02-18T03:09:51.380Z,89.26
2018-02-18T03:10:51.369Z,89.36
2018-02-18T03:11:51.351Z,88.69
2018-02-18T03:12:51.339Z,88.60
2018-02-18T03:13:51.332Z,88.79
2018-02-18T03:14:51.326Z,88.79
2018-02-18T03:15:51.315Z,88.79
2018-02-18T03:16:51.299Z,88.69
2018-02-18T03:17:51.287Z,88.79
2018-02-18T03:18:51.272Z,88.88
2018-02-18T03:19:51.266Z,88.79
2018-02-18T03:20:51.256Z,88.98
2018-02-18T03:21:51.235Z,88.79
2018-02-18T03:22:51.228Z,88.69
2018-02-18T03:23:51.215Z,88.79
2018-02-18T03:24:51.203Z,88.60
2018-02-18T03:25:51.195Z,88.88
2018-02-18T03:26:51.186Z,88.88
2018-02-18T03:27:51.170Z,88.69
2018-02-18T03:28:51.153Z,88.88
2018-02-18T03:29:51.146Z,88.79
2018-02-18T03:30:51.136Z,89.54
2018-02-18T03:31:51.123Z,89.54
2018-02-18T03:32:51.115Z,88.69
2018-02-18T03:33:51.094Z,88.88
2018-02-18T03:34:51.083Z,88.88
2018-02-18T03:35:51.082Z,88.69
2018-02-18T03:36:51.067Z,88.79
2018-02-18T03:37:51.052Z,88.69
2018-02-18T03:38:51.037Z,88.88
2018-02-18T03:39:51.027Z,88.88
2018-02-18T03:40:51.016Z,88.88
2018-02-18T03:41:51.004Z,88.88
2018-02-18T03:42:51.297Z,89.07
2018-02-18T03:43:50.976Z,89.50
2018-02-18T03:44:50.963Z,89.07
2018-02-18T03:45:50.962Z,89.26
2018-02-18T03:46:50.948Z,89.59
2018-02-18T03:47:50.938Z,89.64
2018-02-18T03:48:50.925Z,89.26
2018-02-18T03:49:50.908Z,88.79
2018-02-18T03:50:50.895Z,88.79
2018-02-18T03:51:50.891Z,88.79
2018-02-18T03:52:50.873Z,88.88
2018-02-18T03:53:50.862Z,88.79
2018-02-18T03:54:50.844Z,88.60
2018-02-18T03:55:50.835Z,88.79
2018-02-18T03:56:50.825Z,88.69
2018-02-18T03:57:50.818Z,88.98
2018-02-18T03:58:50.803Z,88.41
2018-02-18T03:59:50.788Z,88.31
2018-02-18T04:00:50.776Z,88.60
2018-02-18T04:01:50.768Z,88.31
2018-02-18T04:02:50.760Z,88.50
2018-02-18T04:03:50.742Z,89.12
2018-02-18T04:04:50.743Z,88.84
2018-02-18T04:05:50.721Z,88.93
2018-02-18T04:06:50.702Z,88.84
2018-02-18T04:07:50.695Z,88.88
2018-02-18T04:08:50.686Z,88.74
2018-02-18T04:09:50.684Z,88.93
2018-02-18T04:10:50.659Z,88.55
2018-02-18T04:11:50.648Z,89.50
2018-02-18T04:12:50.633Z,89.22
2018-02-18T04:13:50.621Z,89.40
2018-02-18T04:14:50.608Z,89.50
2018-02-18T04:15:50.602Z,89.31
2018-02-18T04:16:50.590Z,89.50
2018-02-18T04:17:50.569Z,89.22
2018-02-18T04:18:50.562Z,89.59
2018-02-18T04:19:50.548Z,89.97
2018-02-18T04:20:50.569Z,89.31
2018-02-18T04:21:50.531Z,88.84
2018-02-18T04:22:50.515Z,89.50
2018-02-18T04:23:50.496Z,89.40
2018-02-18T04:24:50.489Z,89.50
2018-02-18T04:25:50.475Z,89.50
2018-02-18T04:26:50.465Z,89.50
2018-02-18T04:27:50.458Z,89.22
2018-02-18T04:28:50.441Z,89.03
2018-02-18T04:29:50.429Z,88.93
2018-02-18T04:30:50.418Z,88.74
2018-02-18T04:31:50.404Z,88.93
2018-02-18T04:32:50.394Z,88.74
2018-02-18T04:33:50.379Z,88.65
2018-02-18T04:34:50.366Z,88.74
2018-02-18T04:35:50.351Z,88.84
2018-02-18T04:36:50.340Z,89.03
2018-02-18T04:37:50.329Z,88.46
2018-02-18T04:38:50.316Z,88.74
2018-02-18T04:39:50.302Z,89.40
2018-02-18T04:40:50.291Z,88.84
2018-02-18T04:41:50.282Z,89.69
2018-02-18T04:42:50.269Z,89.31
2018-02-18T04:43:50.255Z,89.78
2018-02-18T04:44:50.242Z,89.31
2018-02-18T04:45:50.229Z,89.59
2018-02-18T04:46:50.216Z,89.31
2018-02-18T04:47:50.207Z,89.31
2018-02-18T04:48:50.196Z,89.50
2018-02-18T04:49:50.182Z,89.59
2018-02-18T04:50:50.169Z,89.12
2018-02-18T04:51:50.155Z,89.50
2018-02-18T04:52:50.144Z,88.65
2018-02-18T04:53:50.134Z,88.46
2018-02-18T04:54:50.125Z,88.65
2018-02-18T04:55:50.103Z,89.12
2018-02-18T04:56:50.093Z,89.50
2018-02-18T04:57:50.088Z,89.69
2018-02-18T04:58:50.073Z,89.40
2018-02-18T04:59:50.062Z,89.40
2018-02-18T05:00:50.046Z,89.50
2018-02-18T05:01:50.030Z,89.40
2018-02-18T05:02:50.019Z,89.40
2018-02-18T05:03:50.013Z,89.69
2018-02-18T05:04:50.002Z,89.40
2018-02-18T05:05:49.982Z,89.31
2018-02-18T05:06:49.968Z,89.22
2018-02-18T05:07:50.027Z,89.31
2018-02-18T05:08:49.941Z,88.74
2018-02-18T05:09:49.935Z,89.50
2018-02-18T05:10:49.925Z,88.84
2018-02-18T05:11:49.909Z,88.65
2018-02-18T05:12:49.898Z,89.22
2018-02-18T05:13:49.888Z,89.22
2018-02-18T05:14:49.880Z,89.87
2018-02-18T05:15:49.861Z,89.50
2018-02-18T05:16:49.856Z,89.50
2018-02-18T05:17:49.833Z,88.93
2018-02-18T05:18:49.823Z,88.84
2018-02-18T05:19:49.824Z,88.74
2018-02-18T05:20:49.800Z,88.93
2018-02-18T05:21:49.785Z,88.65
2018-02-18T05:22:49.778Z,89.03
2018-02-18T05:23:49.759Z,89.12
2018-02-18T05:24:49.766Z,89.22
2018-02-18T05:25:49.744Z,89.50
2018-02-18T05:26:49.729Z,89.40
2018-02-18T05:27:49.712Z,89.31
2018-02-18T05:28:49.703Z,89.31
2018-02-18T05:29:49.694Z,89.78
2018-02-18T05:30:49.684Z,89.22
2018-02-18T05:31:49.670Z,89.50
2018-02-18T05:32:49.656Z,88.74
2018-02-18T05:33:49.644Z,88.84
2018-02-18T05:34:49.628Z,88.74
2018-02-18T05:35:49.621Z,88.84
2018-02-18T05:36:49.605Z,88.74
2018-02-18T05:37:49.591Z,89.22
2018-02-18T05:38:49.580Z,89.03
2018-02-18T05:39:49.564Z,89.69
2018-02-18T05:40:49.580Z,89.78
2018-02-18T05:41:49.542Z,89.87
2018-02-18T05:42:49.530Z,89.97
2018-02-18T05:43:49.515Z,89.12
2018-02-18T05:44:49.499Z,89.12
2018-02-18T05:45:49.493Z,89.50
2018-02-18T05:46:49.485Z,89.50
2018-02-18T05:47:49.471Z,89.50
2018-02-18T05:48:49.460Z,89.40
2018-02-18T05:49:49.441Z,89.50
2018-02-18T05:50:49.427Z,89.40
2018-02-18T05:51:49.424Z,89.50
2018-02-18T05:52:49.406Z,89.40
2018-02-18T05:53:49.395Z,89.50
2018-02-18T05:54:49.379Z,89.78
2018-02-18T05:55:49.364Z,89.40
2018-02-18T05:56:49.352Z,89.50
2018-02-18T05:57:49.342Z,89.31
2018-02-18T05:58:49.337Z,89.59
2018-02-18T05:59:49.318Z,89.31
2018-02-18T06:00:49.306Z,89.31
2018-02-18T06:01:49.295Z,89.69
2018-02-18T06:02:49.284Z,89.50
2018-02-18T06:03:49.270Z,89.59
2018-02-18T06:04:49.261Z,89.22
2018-02-18T06:05:49.243Z,89.40
2018-02-18T06:06:49.227Z,89.31
2018-02-18T06:07:49.224Z,89.31
2018-02-18T06:08:49.207Z,89.50
2018-02-18T06:09:49.195Z,89.50
2018-02-18T06:10:49.185Z,89.12
2018-02-18T06:11:49.172Z,89.69
2018-02-18T06:12:49.156Z,90.16
2018-02-18T06:13:49.151Z,90.16
2018-02-18T06:14:49.137Z,89.40
2018-02-18T06:15:49.150Z,89.50
2018-02-18T06:16:49.102Z,89.50
2018-02-18T06:17:49.098Z,89.59
2018-02-18T06:18:49.095Z,89.50
2018-02-18T06:19:49.073Z,89.69
2018-02-18T06:20:49.060Z,89.59
2018-02-18T06:21:49.043Z,89.50
2018-02-18T06:22:49.032Z,89.69
2018-02-18T06:23:49.020Z,89.69
2018-02-18T06:24:49.008Z,89.69
2018-02-18T06:25:48.998Z,89.03
2018-02-18T06:26:48.987Z,89.50
2018-02-18T06:27:48.971Z,89.31
2018-02-18T06:28:48.964Z,89.22
2018-02-18T06:29:48.943Z,89.31
2018-02-18T06:30:48.935Z,89.59
2018-02-18T06:31:48.927Z,89.59
2018-02-18T06:32:48.911Z,88.65
2018-02-18T06:33:48.898Z,88.84
2018-02-18T06:34:48.884Z,88.65
2018-02-18T06:35:48.868Z,88.74
2018-02-18T06:36:48.861Z,89.03
2018-02-18T06:37:48.856Z,88.84
2018-02-18T06:38:48.847Z,88.84
2018-02-18T06:39:48.818Z,88.65
2018-02-18T06:40:48.812Z,88.74
2018-02-18T06:41:48.796Z,88.65
2018-02-18T06:42:48.790Z,88.74
2018-02-18T06:43:48.774Z,88.55
2018-02-18T06:44:48.763Z,89.03
2018-02-18T06:45:48.745Z,89.12
2018-02-18T06:46:48.733Z,88.17
2018-02-18T06:47:48.729Z,88.46
2018-02-18T06:48:48.711Z,88.46
2018-02-18T06:49:48.694Z,88.08
2018-02-18T06:50:48.683Z,88.65
2018-02-18T06:51:48.671Z,88.08
2018-02-18T06:52:48.659Z,88.36
2018-02-18T06:53:48.653Z,87.89
2018-02-18T06:54:48.640Z,88.17
2018-02-18T06:55:48.624Z,88.08
2018-02-18T06:56:48.610Z,88.08
2018-02-18T06:57:48.601Z,87.13
2018-02-18T06:58:48.626Z,87.42
2018-02-18T06:59:48.580Z,87.89
2018-02-18T07:00:48.563Z,87.42
2018-02-18T07:01:48.545Z,87.42
2018-02-18T07:02:48.542Z,87.51
2018-02-18T07:03:48.528Z,87.61
2018-02-18T07:04:48.514Z,88.08
2018-02-18T07:05:48.500Z,87.98
2018-02-18T07:06:48.493Z,88.08
2018-02-18T07:07:48.473Z,87.79
2018-02-18T07:08:48.463Z,87.98
2018-02-18T07:09:48.453Z,87.51
2018-02-18T07:10:48.443Z,87.51
2018-02-18T07:11:48.432Z,87.51
2018-02-18T07:12:48.412Z,87.23
2018-02-18T07:13:48.405Z,87.13
2018-02-18T07:14:48.393Z,87.13
2018-02-18T07:15:48.381Z,87.51
2018-02-18T07:16:48.372Z,87.51
2018-02-18T07:17:48.353Z,87.04
2018-02-18T07:18:48.342Z,86.94
2018-02-18T07:19:48.338Z,86.85
2018-02-18T07:20:48.324Z,86.85
2018-02-18T07:21:48.302Z,86.76
2018-02-18T07:22:48.299Z,86.85
2018-02-18T07:23:48.282Z,86.76
2018-02-18T07:24:48.272Z,87.51
2018-02-18T07:25:48.261Z,87.23
2018-02-18T07:26:48.248Z,87.23
2018-02-18T07:27:48.237Z,87.32
2018-02-18T07:28:48.217Z,87.13
2018-02-18T07:29:48.210Z,87.51
2018-02-18T07:30:51.605Z,86.66
2018-02-18T07:31:48.188Z,87.13
2018-02-18T07:32:48.178Z,86.90
2018-02-18T07:33:48.459Z,86.19
2018-02-18T07:34:49.198Z,86.99
2018-02-18T07:35:48.389Z,86.80
2018-02-18T07:36:48.124Z,86.61
2018-02-18T07:37:48.160Z,86.71
2018-02-18T07:38:48.097Z,86.80
2018-02-18T07:39:48.090Z,86.80
2018-02-18T07:40:48.078Z,86.61
2018-02-18T07:41:52.074Z,86.42
2018-02-18T07:42:48.058Z,86.71
2018-02-18T07:43:48.038Z,86.04
2018-02-18T07:44:48.027Z,86.33
2018-02-18T07:45:48.018Z,86.33
2018-02-18T07:46:48.006Z,86.19
2018-02-18T07:47:47.998Z,86.71
2018-02-18T07:48:47.987Z,85.85
2018-02-18T07:49:47.969Z,85.85
2018-02-18T07:50:47.955Z,85.66
2018-02-18T07:51:47.947Z,85.66
2018-02-18T07:52:47.932Z,85.38
2018-02-18T07:53:47.926Z,85.10
2018-02-18T07:54:47.903Z,85.47
2018-02-18T07:55:47.890Z,84.63
2018-02-18T07:56:47.876Z,84.44
2018-02-18T07:57:47.931Z,84.81
2018-02-18T07:58:47.857Z,84.81
2018-02-18T07:59:47.900Z,84.91
2018-02-18T08:00:47.879Z,85.38
2018-02-18T08:01:47.821Z,84.72
2018-02-18T08:02:47.808Z,84.72
2018-02-18T08:03:47.799Z,84.06
2018-02-18T08:04:47.787Z,84.16
2018-02-18T08:05:47.874Z,84.25
2018-02-18T08:06:47.759Z,83.97
2018-02-18T08:07:47.747Z,84.16
2018-02-18T08:08:47.740Z,83.97
2018-02-18T08:09:47.722Z,84.34
2018-02-18T08:10:47.707Z,84.81
2018-02-18T08:11:47.750Z,84.44
2018-02-18T08:12:47.684Z,83.97
2018-02-18T08:13:47.678Z,83.59
2018-02-18T08:14:47.666Z,83.68
2018-02-18T08:15:47.702Z,83.40
2018-02-18T08:16:47.641Z,83.15
2018-02-18T08:17:47.733Z,83.25
2018-02-18T08:18:47.617Z,83.06
2018-02-18T08:19:47.709Z,83.06
2018-02-18T08:20:47.595Z,82.97
2018-02-18T08:21:47.573Z,82.31
2018-02-18T08:22:47.563Z,82.59
2018-02-18T08:23:47.607Z,82.50
2018-02-18T08:24:47.543Z,82.31
2018-02-18T08:25:47.532Z,81.74
2018-02-18T08:26:47.519Z,82.31
2018-02-18T08:27:47.557Z,82.02
2018-02-18T08:28:47.493Z,81.55
2018-02-18T08:29:47.491Z,80.88
2018-02-18T08:30:47.579Z,80.79
2018-02-18T08:31:47.467Z,80.60
2018-02-18T08:32:47.452Z,80.60
2018-02-18T08:33:47.485Z,80.51
2018-02-18T08:34:47.423Z,80.13
2018-02-18T08:35:47.631Z,80.41
2018-02-18T08:36:47.399Z,79.56
2018-02-18T08:37:47.495Z,80.04
2018-02-18T08:38:47.392Z,79.85
2018-02-18T08:39:47.370Z,79.94
2018-02-18T08:40:47.405Z,78.75
2018-02-18T08:41:47.347Z,78.75
2018-02-18T08:42:47.340Z,78.37
2018-02-18T08:43:47.324Z,78.75
2018-02-18T08:44:47.365Z,78.37
2018-02-18T08:45:47.301Z,78.56
2018-02-18T08:46:47.287Z,77.89
2018-02-18T08:47:47.283Z,77.23
2018-02-18T08:48:47.367Z,77.04
2018-02-18T08:49:47.357Z,77.51
2018-02-18T08:50:47.344Z,77.51
2018-02-18T08:51:47.288Z,77.23
2018-02-18T08:52:47.224Z,76.76
2018-02-18T08:53:47.317Z,76.76
2018-02-18T08:54:47.206Z,76.95
2018-02-18T08:55:47.188Z,76.95
2018-02-18T08:56:47.184Z,76.48
2018-02-18T08:57:47.278Z,76.23
2018-02-18T08:58:47.162Z,76.51
2018-02-18T08:59:47.153Z,75.95
2018-02-18T09:00:47.143Z,75.81
2018-02-18T09:01:47.129Z,76.23
2018-02-18T09:02:47.219Z,76.70
2018-02-18T09:03:47.112Z,76.23
2018-02-18T09:04:47.099Z,75.66
2018-02-18T09:05:47.086Z,75.95
2018-02-18T09:06:47.076Z,75.66
2018-02-18T09:07:47.066Z,75.57
2018-02-18T09:08:47.052Z,74.81
2018-02-18T09:09:47.048Z,74.52
2018-02-18T09:10:47.044Z,74.52
2018-02-18T09:11:47.024Z,74.05
2018-02-18T09:12:47.017Z,74.15
2018-02-18T09:13:47.017Z,73.86
2018-02-18T09:14:47.012Z,73.86
2018-02-18T09:15:46.992Z,73.30
2018-02-18T09:16:46.980Z,73.39
2018-02-18T09:17:46.968Z,73.11
2018-02-18T09:18:46.953Z,73.05
2018-02-18T09:19:46.946Z,72.57
2018-02-18T09:20:46.936Z,72.77
2018-02-18T09:21:46.928Z,72.38
2018-02-18T09:22:46.916Z,72.19
2018-02-18T09:23:46.904Z,72.29
2018-02-18T09:24:46.899Z,72.57
2018-02-18T09:25:46.889Z,72.48
2018-02-18T09:26:46.880Z,72.19
2018-02-18T09:27:46.862Z,72.00
2018-02-18T09:28:46.856Z,71.81
2018-02-18T09:29:46.848Z,70.97
2018-02-18T09:30:46.841Z,71.44
2018-02-18T09:31:46.830Z,71.72
2018-02-18T09:32:46.820Z,71.53
2018-02-18T09:33:46.806Z,71.06
2018-02-18T09:34:46.796Z,71.00
2018-02-18T09:35:46.791Z,71.09
2018-02-18T09:36:46.782Z,70.34
2018-02-18T09:37:46.765Z,69.29
2018-02-18T09:38:46.761Z,69.20
2018-02-18T09:39:46.750Z,69.77
2018-02-18T09:40:46.764Z,68.91
2018-02-18T09:41:46.735Z,68.66
2018-02-18T09:42:46.729Z,66.77
2018-02-18T09:43:46.716Z,65.25
2018-02-18T09:44:46.700Z,65.16
2018-02-18T09:45:46.697Z,64.68
2018-02-18T09:47:29.105Z,64.24
2018-02-18T09:54:21.481Z,66.10
2018-02-18T09:55:21.478Z,66.39
2018-02-18T09:57:13.892Z,66.58
2018-02-18T10:00:44.568Z,65.34
2018-02-18T10:08:04.239Z,66.54
2018-02-18T10:09:04.232Z,66.93
2018-02-18T10:10:04.224Z,67.40
2018-02-18T10:21:24.434Z,65.53
2018-02-18T10:22:20.395Z,65.82
2018-02-18T10:24:02.781Z,65.16
2018-02-18T10:25:02.781Z,64.87
2018-02-18T10:26:02.770Z,64.97
2018-02-18T10:27:02.757Z,65.06
2018-02-18T10:28:02.755Z,64.43
2018-02-18T10:29:02.740Z,64.52
2018-02-18T10:30:02.731Z,64.05
2018-02-18T10:31:02.726Z,64.43
2018-02-18T10:32:02.769Z,64.24
2018-02-18T10:33:02.704Z,63.48
2018-02-18T10:34:02.702Z,63.39
2018-02-18T10:35:02.686Z,63.10
2018-02-18T10:36:02.678Z,62.24
2018-02-18T10:37:02.674Z,62.82
2018-02-18T10:38:02.665Z,62.62
2018-02-18T10:39:02.654Z,62.72
2018-02-18T10:40:02.646Z,62.91
2018-02-18T10:41:02.642Z,62.72
2018-02-18T10:42:02.640Z,62.91
2018-02-18T10:43:02.631Z,61.42
2018-02-18T10:44:02.620Z,61.11
2018-02-18T10:45:03.112Z,61.30
2018-02-18T10:46:02.599Z,60.82
2018-02-18T10:47:02.597Z,61.96
2018-02-18T10:48:02.586Z,62.62
2018-02-18T10:49:02.574Z,62.15
2018-02-18T10:50:02.570Z,61.39
2018-02-18T10:51:02.560Z,61.20
2018-02-18T10:52:02.556Z,61.20
2018-02-18T10:53:03.153Z,61.14
2018-02-18T10:54:02.545Z,60.95
2018-02-18T10:55:03.280Z,60.28
2018-02-18T10:56:02.527Z,60.10
2018-02-18T10:57:02.517Z,60.28
2018-02-18T10:58:02.510Z,60.28
2018-02-18T10:59:02.499Z,60.47
2018-02-18T11:00:03.542Z,60.38
2018-02-18T11:01:02.479Z,60.19
2018-02-18T11:02:02.475Z,60.66
2018-02-18T11:03:02.572Z,60.66
2018-02-18T11:22:47.647Z,57.91
2018-02-18T11:23:47.646Z,57.91
2018-02-18T11:24:47.636Z,57.46
2018-02-18T11:25:50.253Z,57.24
2018-02-18T11:28:22.655Z,57.34
2018-02-18T11:29:22.451Z,57.15
2018-02-18T11:30:22.441Z,57.43
2018-02-18T11:31:22.429Z,57.34
2018-02-18T11:33:59.929Z,58.13
2018-02-18T11:35:03.408Z,57.56
2018-02-18T11:35:59.963Z,57.37
2018-02-18T11:36:59.908Z,56.99
2018-02-18T11:38:03.944Z,56.51
2018-02-18T11:40:34.728Z,56.32
2018-02-18T11:43:07.231Z,55.47
2018-02-18T11:47:20.309Z,55.76
2018-02-18T11:48:20.312Z,56.13
2018-02-18T11:49:20.302Z,55.85
2018-02-18T11:55:40.831Z,54.74
2018-02-18T11:58:45.716Z,54.74
2018-02-18T12:08:18.079Z,52.67
2018-02-18T12:09:57.060Z,52.39
2018-02-18T12:13:47.062Z,52.13
2018-02-18T12:16:19.178Z,50.70
2018-02-18T12:18:06.590Z,50.73
2018-02-18T12:19:06.593Z,50.44
2018-02-18T12:20:06.589Z,50.04
2018-02-18T12:21:07.589Z,49.40
2018-02-18T12:22:06.581Z,49.11
2018-02-18T12:24:04.390Z,48.35
2018-02-18T12:25:04.392Z,48.08
2018-02-18T12:26:04.387Z,47.49
2018-02-18T12:28:04.379Z,48.08
2018-02-18T12:29:04.379Z,47.23
2018-02-18T12:30:04.370Z,46.56
2018-02-18T12:31:04.366Z,46.30
2018-02-18T12:32:07.395Z,46.01
2018-02-18T12:33:05.177Z,45.35
2018-02-18T12:34:04.360Z,45.65
2018-02-18T12:37:02.678Z,47.13
2018-02-18T12:37:59.253Z,47.99
2018-02-18T12:38:59.251Z,47.80
2018-02-18T12:39:59.247Z,47.04
2018-02-18T12:40:59.456Z,47.87
2018-02-18T12:41:59.248Z,47.87
2018-02-18T12:43:01.867Z,47.23
2018-02-18T12:43:59.254Z,46.84
2018-02-18T12:44:59.255Z,46.84
2018-02-18T12:45:59.249Z,46.75
2018-02-18T12:46:59.253Z,46.56
2018-02-18T12:47:59.252Z,46.37
2018-02-18T12:48:59.356Z,46.30
2018-02-18T12:49:59.258Z,45.83
2018-02-18T12:50:59.261Z,45.73
2018-02-18T12:51:59.257Z,45.51
2018-02-18T12:52:59.261Z,45.51
2018-02-18T12:53:59.265Z,47.02
2018-02-18T12:54:59.282Z,47.87
2018-02-18T12:55:59.273Z,46.94
2018-02-18T12:56:59.274Z,46.84
2018-02-18T12:57:59.268Z,46.68
2018-02-18T12:58:59.271Z,45.92
2018-02-18T12:59:59.279Z,45.54
2018-02-18T13:00:59.280Z,45.61
2018-02-18T13:01:59.274Z,46.18
2018-02-18T13:02:59.281Z,46.20
2018-02-18T13:03:59.280Z,45.80
2018-02-18T13:04:59.284Z,46.37
2018-02-18T13:05:59.289Z,46.66
2018-02-18T13:06:59.542Z,46.37
2018-02-18T13:07:59.287Z,46.28
2018-02-18T13:08:59.289Z,45.89
2018-02-18T13:09:59.291Z,45.80
2018-02-18T13:10:59.292Z,45.61
2018-02-18T13:11:59.292Z,45.89
2018-02-18T13:13:41.956Z,46.94
2018-02-18T13:14:41.714Z,46.47
2018-02-18T13:15:41.715Z,45.70
2018-02-18T13:16:41.709Z,45.80
2018-02-18T13:17:41.715Z,45.99
2018-02-18T13:18:41.710Z,45.42
2018-02-18T13:19:41.958Z,45.14
2018-02-18T13:20:41.714Z,46.35
2018-02-18T13:21:41.715Z,46.44
2018-02-18T13:22:41.709Z,47.04
2018-02-18T13:23:41.712Z,46.56
2018-02-18T13:24:41.708Z,45.42
2018-02-18T13:25:41.961Z,44.96
2018-02-18T13:26:41.715Z,44.11
2018-02-18T13:27:41.716Z,43.65
2018-02-18T13:28:41.711Z,42.22
2018-02-18T13:29:41.712Z,41.65
2018-02-18T13:30:41.717Z,41.06
2018-02-18T13:31:42.023Z,42.08
2018-02-18T13:32:41.759Z,42.85
2018-02-18T13:33:41.823Z,42.56
2018-02-18T13:34:41.716Z,43.02
2018-02-18T13:35:41.717Z,43.78
2018-02-18T13:36:41.722Z,43.13
2018-02-18T13:37:42.023Z,42.56
2018-02-18T13:38:41.715Z,42.47
2018-02-18T13:39:41.720Z,42.25
2018-02-18T13:40:41.716Z,42.54
2018-02-18T13:41:41.717Z,42.66
2018-02-18T13:42:41.729Z,42.66
2018-02-18T13:43:42.069Z,41.71
2018-02-18T13:44:41.715Z,42.44
2018-02-18T13:51:45.573Z,43.68
2018-02-18T13:56:06.369Z,44.54
2018-02-18T14:01:45.543Z,45.54
2018-02-18T14:02:45.398Z,45.54
2018-02-18T18:00:29.272Z,62.69
2018-02-18T18:36:32.050Z,68.63
2018-02-18T18:56:39.539Z,64.08
2018-02-18T18:59:29.201Z,63.70
2018-02-18T19:00:26.406Z,64.36
2018-02-18T19:01:24.676Z,63.42
2018-02-18T19:05:24.645Z,63.98
2018-02-18T19:06:24.646Z,63.23
2018-02-18T19:07:24.731Z,63.60
2018-02-18T19:08:24.665Z,63.70
2018-02-18T19:09:24.609Z,63.42
2018-02-18T19:10:25.804Z,63.60
2018-02-18T19:11:24.896Z,63.42
2018-02-18T19:12:24.584Z,63.51
2018-02-18T19:13:24.576Z,63.51
2018-02-18T19:14:24.562Z,63.70
2018-02-18T19:15:24.654Z,63.60
2018-02-18T19:16:25.765Z,64.36
2018-02-18T19:17:24.897Z,63.79
2018-02-18T19:18:31.846Z,64.36
2018-02-18T19:19:25.029Z,63.51
2018-02-18T19:20:33.272Z,63.51
2018-02-18T19:21:24.504Z,63.32
2018-02-18T19:22:24.502Z,63.89
2018-02-18T19:23:24.639Z,63.89
2018-02-18T19:24:24.675Z,63.98
2018-02-18T19:25:24.724Z,63.89